Time;durP1;ratioP1;P1;durP2;ratioP2;P2;SDS_P1;SDS_P2;PMS_P1;PMS_P2;Temp;Humidity;BMP_temperature;BMP_pressure;BME280_temperature;BME280_humidity;BME280_pressure;Samples;Min_cycle;Max_cycle;Signal;HPM_P1;HPM_P2
2022/03/18 00:00:35;;;;;;;15.03;12.05;;;;;;;;;;1894185;76;21207;-57
2022/03/18 00:03:04;;;;;;;11.90;9.80;;;;;;;;;;1894306;74;21038;-57
2022/03/18 00:05:34;;;;;;;26.20;15.93;;;;;;;;;;1894209;76;21026;-57
2022/03/18 00:08:04;;;;;;;22.82;14.33;;;;;;;;;;1894255;76;21092;-57
2022/03/18 00:10:33;;;;;;;17.67;13.72;;;;;;;;;;1894192;76;21088;-57
2022/03/18 00:13:02;;;;;;;19.52;12.95;;;;;;;;;;1894058;76;21042;-57
2022/03/18 00:15:30;;;;;;;12.60;10.50;;;;;;;;;;1894109;76;21042;-57
2022/03/18 00:18:00;;;;;;;18.85;10.85;;;;;;;;;;1894182;76;21101;-57
2022/03/18 00:20:29;;;;;;;22.77;13.68;;;;;;;;;;1894199;76;21042;-58
2022/03/18 00:22:57;;;;;;;19.37;13.25;;;;;;;;;;1894156;76;21104;-57
2022/03/18 00:25:26;;;;;;;13.78;10.13;;;;;;;;;;1894079;76;21093;-57
2022/03/18 00:27:55;;;;;;;17.80;12.37;;;;;;;;;;1894154;76;21038;-57
2022/03/18 00:30:24;;;;;;;17.60;14.15;;;;;;;;;;1894087;76;21096;-57
2022/03/18 00:32:55;;;;;;;15.25;10.40;;;;;;;;;;1893914;75;21087;-57
2022/03/18 00:35:24;;;;;;;22.00;12.47;;;;;;;;;;1894184;75;21022;-57
2022/03/18 00:37:52;;;;;;;11.22;7.35;;;;;;;;;;1894070;75;21050;-57
2022/03/18 00:40:21;;;;;;;20.55;12.43;;;;;;;;;;1894070;75;21026;-57
2022/03/18 00:42:50;;;;;;;11.22;7.65;;;;;;;;;;1894014;76;21046;-57
2022/03/18 00:45:19;;;;;;;12.07;9.73;;;;;;;;;;1894212;76;21100;-58
2022/03/18 00:53:22;;;;;;;12.47;9.03;;;;;;;;;;1894105;74;21038;-57
2022/03/18 00:55:51;;;;;;;17.85;12.43;;;;;;;;;;1894154;76;21153;-57
2022/03/18 00:58:20;;;;;;;18.30;11.85;;;;;;;;;;1894186;76;21042;-57
2022/03/18 01:00:48;;;;;;;18.92;13.72;;;;;;;;;;1894118;76;21104;-57
2022/03/18 01:03:19;;;;;;;18.77;12.80;;;;;;;;;;1894179;76;21120;-57
2022/03/18 01:05:48;;;;;;;21.97;13.88;;;;;;;;;;1894059;76;21022;-58
2022/03/18 01:08:16;;;;;;;18.55;12.88;;;;;;;;;;1894058;76;21089;-57
2022/03/18 01:10:45;;;;;;;18.55;10.95;;;;;;;;;;1894171;76;21042;-57
2022/03/18 01:13:14;;;;;;;19.52;12.28;;;;;;;;;;1893989;75;21096;-57
2022/03/18 01:15:43;;;;;;;17.52;12.75;;;;;;;;;;1894097;76;21042;-57
2022/03/18 01:18:12;;;;;;;9.68;8.25;;;;;;;;;;1894073;75;21041;-57
2022/03/18 01:20:41;;;;;;;9.58;7.47;;;;;;;;;;1894006;76;21038;-57
2022/03/18 01:23:11;;;;;;;21.50;12.98;;;;;;;;;;1894048;76;21042;-57
2022/03/18 01:25:40;;;;;;;15.68;11.35;;;;;;;;;;1894157;76;21029;-58
2022/03/18 01:28:09;;;;;;;13.48;8.95;;;;;;;;;;1893969;76;21100;-57
2022/03/18 01:30:37;;;;;;;19.23;13.15;;;;;;;;;;1894136;76;21088;-57
2022/03/18 01:33:06;;;;;;;20.82;12.78;;;;;;;;;;1894127;74;21131;-57
2022/03/18 01:35:37;;;;;;;19.75;11.57;;;;;;;;;;1894071;76;21054;-57
2022/03/18 01:38:05;;;;;;;9.93;8.38;;;;;;;;;;1894060;76;21468;-57
2022/03/18 01:40:34;;;;;;;17.85;10.95;;;;;;;;;;1893974;74;21046;-58
2022/03/18 01:43:03;;;;;;;22.77;14.50;;;;;;;;;;1894132;76;21034;-58
2022/03/18 01:45:33;;;;;;;16.00;12.05;;;;;;;;;;1894157;76;21546;-58
2022/03/18 01:48:02;;;;;;;17.98;11.22;;;;;;;;;;1893993;76;21022;-58
2022/03/18 01:50:31;;;;;;;23.10;12.40;;;;;;;;;;1894049;76;21050;-58
2022/03/18 01:53:00;;;;;;;21.07;13.48;;;;;;;;;;1893998;76;21018;-58
2022/03/18 01:55:29;;;;;;;19.65;13.83;;;;;;;;;;1894186;76;21088;-58
2022/03/18 01:57:57;;;;;;;17.82;11.53;;;;;;;;;;1894127;76;21105;-58
2022/03/18 02:00:27;;;;;;;14.33;10.08;;;;;;;;;;1894115;76;21146;-58
2022/03/18 02:02:55;;;;;;;16.65;12.55;;;;;;;;;;1894007;76;21120;-58
2022/03/18 02:05:24;;;;;;;19.12;11.38;;;;;;;;;;1894101;76;21085;-58
2022/03/18 02:07:53;;;;;;;13.60;9.10;;;;;;;;;;1894065;76;21026;-58
2022/03/18 02:10:22;;;;;;;16.25;12.80;;;;;;;;;;1894264;76;21033;-58
2022/03/18 02:12:51;;;;;;;24.30;13.48;;;;;;;;;;1894187;74;21018;-58
2022/03/18 02:15:20;;;;;;;19.80;12.88;;;;;;;;;;1894272;76;21042;-58
2022/03/18 02:17:48;;;;;;;18.82;11.65;;;;;;;;;;1894260;76;21042;-58
2022/03/18 02:20:17;;;;;;;21.07;13.25;;;;;;;;;;1894087;75;21046;-58
2022/03/18 02:22:46;;;;;;;16.77;12.35;;;;;;;;;;1894072;76;21144;-58
2022/03/18 02:25:15;;;;;;;17.05;12.43;;;;;;;;;;1894228;76;21038;-58
2022/03/18 02:27:55;;;;;;;24.85;11.33;;;;;;;;;;1894229;76;21034;-58
2022/03/18 02:30:24;;;;;;;17.32;11.80;;;;;;;;;;1893453;75;21014;-58
2022/03/18 02:32:53;;;;;;;13.40;10.23;;;;;;;;;;1894191;76;21034;-58
2022/03/18 02:35:22;;;;;;;16.25;11.55;;;;;;;;;;1894225;76;21026;-58
2022/03/18 02:37:50;;;;;;;13.88;9.15;;;;;;;;;;1894336;76;21038;-58
2022/03/18 02:40:19;;;;;;;14.83;10.63;;;;;;;;;;1894304;76;21116;-58
2022/03/18 02:42:48;;;;;;;17.23;11.45;;;;;;;;;;1894584;74;21042;-58
2022/03/18 02:45:17;;;;;;;15.18;10.98;;;;;;;;;;1879091;76;21134;-58
2022/03/18 02:47:46;;;;;;;13.78;10.13;;;;;;;;;;1872672;77;21063;-58
2022/03/18 02:50:15;;;;;;;19.27;12.25;;;;;;;;;;1872736;77;21019;-58
2022/03/18 02:52:44;;;;;;;20.08;11.75;;;;;;;;;;1872643;76;21026;-58
2022/03/18 02:55:13;;;;;;;10.00;6.53;;;;;;;;;;1872632;77;21019;-58
2022/03/18 02:57:42;;;;;;;16.70;10.08;;;;;;;;;;1872777;77;21035;-58
2022/03/18 03:03:16;;;;;;;12.55;7.42;;;;;;;;;;1879026;74;20960;-57
2022/03/18 03:08:32;;;;;;;17.52;11.70;;;;;;;;;;1904775;75;21011;-58
2022/03/18 03:11:01;;;;;;;14.40;9.53;;;;;;;;;;1904860;75;21027;-58
2022/03/18 03:13:30;;;;;;;19.07;13.75;;;;;;;;;;1904837;75;21015;-58
2022/03/18 03:15:59;;;;;;;16.20;11.48;;;;;;;;;;1904878;75;21039;-58
2022/03/18 03:18:28;;;;;;;19.07;12.68;;;;;;;;;;1904814;75;21039;-58
2022/03/18 03:20:57;;;;;;;14.00;10.50;;;;;;;;;;1904759;75;21031;-58
2022/03/18 03:23:26;;;;;;;19.70;11.70;;;;;;;;;;1904761;75;21031;-58
2022/03/18 03:25:55;;;;;;;17.67;13.03;;;;;;;;;;1904703;75;21160;-58
2022/03/18 03:28:23;;;;;;;18.27;12.68;;;;;;;;;;1904772;75;21086;-58
2022/03/18 03:30:52;;;;;;;18.62;12.45;;;;;;;;;;1904816;75;21023;-58
2022/03/18 03:33:21;;;;;;;22.90;14.78;;;;;;;;;;1904729;75;21039;-58
2022/03/18 03:35:50;;;;;;;23.38;14.13;;;;;;;;;;1904804;75;21043;-58
2022/03/18 03:38:21;;;;;;;19.15;12.00;;;;;;;;;;1904767;75;21040;-58
2022/03/18 03:40:49;;;;;;;17.82;11.83;;;;;;;;;;1904735;75;21046;-58
2022/03/18 03:43:18;;;;;;;16.57;12.05;;;;;;;;;;1904783;75;21043;-58
2022/03/18 03:45:47;;;;;;;18.48;12.45;;;;;;;;;;1904729;75;21109;-58
2022/03/18 03:48:16;;;;;;;13.55;8.15;;;;;;;;;;1904749;75;21007;-58
2022/03/18 03:50:45;;;;;;;23.22;14.98;;;;;;;;;;1904739;75;21092;-58
2022/03/18 03:53:14;;;;;;;23.40;13.28;;;;;;;;;;1904747;75;21291;-58
2022/03/18 03:55:43;;;;;;;20.85;14.43;;;;;;;;;;1904795;75;21011;-58
2022/03/18 03:58:11;;;;;;;18.77;13.83;;;;;;;;;;1904726;75;21101;-58
2022/03/18 04:00:40;;;;;;;22.35;13.78;;;;;;;;;;1904735;75;21035;-58
2022/03/18 04:03:09;;;;;;;23.05;13.53;;;;;;;;;;1904766;75;21035;-58
2022/03/18 04:05:38;;;;;;;14.68;10.50;;;;;;;;;;1932695;74;21058;-58
2022/03/18 04:08:07;;;;;;;20.90;13.25;;;;;;;;;;1937331;74;21006;-58
2022/03/18 04:10:42;;;;;;;27.55;14.07;;;;;;;;;;1937322;74;21099;-58
2022/03/18 04:13:06;;;;;;;18.73;13.48;;;;;;;;;;1937004;74;21491;-58
2022/03/18 04:15:35;;;;;;;24.27;11.33;;;;;;;;;;1937346;74;21060;-58
2022/03/18 04:18:04;;;;;;;19.05;12.05;;;;;;;;;;1937445;74;21084;-58
2022/03/18 04:20:33;;;;;;;19.77;12.07;;;;;;;;;;1937353;74;21044;-58
2022/03/18 04:23:02;;;;;;;21.12;13.88;;;;;;;;;;1937285;74;21123;-58
2022/03/18 04:25:31;;;;;;;17.67;13.58;;;;;;;;;;1937479;74;21014;-58
2022/03/18 04:28:00;;;;;;;10.93;8.98;;;;;;;;;;1937396;74;21033;-58
2022/03/18 04:30:28;;;;;;;23.27;14.40;;;;;;;;;;1937401;74;21025;-58
2022/03/18 04:32:57;;;;;;;25.48;14.38;;;;;;;;;;1937346;73;21038;-58
2022/03/18 04:35:26;;;;;;;20.12;13.93;;;;;;;;;;1937274;74;21104;-58
2022/03/18 04:37:55;;;;;;;29.50;16.60;;;;;;;;;;1937420;74;21142;-58
2022/03/18 04:40:24;;;;;;;20.92;12.28;;;;;;;;;;1937438;73;21085;-58
2022/03/18 04:42:53;;;;;;;24.18;17.30;;;;;;;;;;1937255;74;21046;-58
2022/03/18 04:45:21;;;;;;;24.57;14.70;;;;;;;;;;1937362;74;21041;-58
2022/03/18 04:47:50;;;;;;;19.67;13.38;;;;;;;;;;1937444;74;21053;-58
2022/03/18 04:50:19;;;;;;;16.87;13.53;;;;;;;;;;1937340;73;21112;-58
2022/03/18 04:52:48;;;;;;;18.35;12.88;;;;;;;;;;1937357;73;21041;-58
2022/03/18 04:55:17;;;;;;;15.05;11.00;;;;;;;;;;1937430;74;21037;-58
2022/03/18 04:57:46;;;;;;;15.10;9.18;;;;;;;;;;1937356;74;21037;-58
2022/03/18 05:00:15;;;;;;;9.50;8.10;;;;;;;;;;1937413;74;21033;-58
2022/03/18 05:02:43;;;;;;;19.00;11.88;;;;;;;;;;1937337;74;21049;-58
2022/03/18 05:05:17;;;;;;;19.70;12.58;;;;;;;;;;1937341;74;21054;-58
2022/03/18 05:07:44;;;;;;;7.30;5.25;;;;;;;;;;1937130;73;21432;-58
2022/03/18 05:10:13;;;;;;;17.87;12.25;;;;;;;;;;1937249;74;21084;-58
2022/03/18 05:12:41;;;;;;;17.23;11.03;;;;;;;;;;1937363;73;21010;-58
2022/03/18 05:15:11;;;;;;;6.15;4.40;;;;;;;;;;1937264;74;21006;-59
2022/03/18 05:17:40;;;;;;;9.85;8.43;;;;;;;;;;1937261;74;21021;-58
2022/03/18 05:20:10;;;;;;;15.72;11.68;;;;;;;;;;1937252;74;21115;-58
2022/03/18 05:22:38;;;;;;;16.57;9.53;;;;;;;;;;1937291;74;21002;-58
2022/03/18 05:25:07;;;;;;;12.88;9.30;;;;;;;;;;1937294;74;21099;-58
2022/03/18 05:27:37;;;;;;;19.27;12.15;;;;;;;;;;1937408;74;21095;-58
2022/03/18 05:30:06;;;;;;;5.67;3.98;;;;;;;;;;1937392;74;21037;-58
2022/03/18 05:32:35;;;;;;;10.53;7.03;;;;;;;;;;1937307;73;21026;-58
2022/03/18 05:35:04;;;;;;;13.55;10.28;;;;;;;;;;1937486;74;21057;-58
2022/03/18 05:37:33;;;;;;;9.18;5.90;;;;;;;;;;1937445;74;21006;-58
2022/03/18 05:40:03;;;;;;;18.65;11.97;;;;;;;;;;1937315;74;21041;-58
2022/03/18 05:42:31;;;;;;;6.72;5.20;;;;;;;;;;1937338;74;21029;-56
2022/03/18 05:45:01;;;;;;;8.90;6.78;;;;;;;;;;1937549;73;21037;-57
2022/03/18 05:47:31;;;;;;;11.25;8.88;;;;;;;;;;1937324;74;21034;-58
2022/03/18 05:50:01;;;;;;;16.00;10.35;;;;;;;;;;1937414;74;21087;-57
2022/03/18 05:52:30;;;;;;;11.00;8.33;;;;;;;;;;1937316;74;21041;-57
2022/03/18 05:54:59;;;;;;;17.65;12.20;;;;;;;;;;1937492;74;21046;-57
2022/03/18 05:57:28;;;;;;;14.28;10.68;;;;;;;;;;1937370;74;21042;-57
2022/03/18 05:59:58;;;;;;;11.75;7.62;;;;;;;;;;1937528;74;21021;-57
2022/03/18 06:02:27;;;;;;;11.50;6.47;;;;;;;;;;1937536;74;21022;-57
2022/03/18 06:04:57;;;;;;;11.45;7.67;;;;;;;;;;1937295;74;21088;-57
2022/03/18 06:07:25;;;;;;;10.23;6.55;;;;;;;;;;1937341;74;21120;-57
2022/03/18 06:12:42;;;;;;;13.08;10.30;;;;;;;;;;1937348;74;21029;-57
2022/03/18 06:15:11;;;;;;;12.05;7.53;;;;;;;;;;1937393;74;21026;-58
2022/03/18 06:17:39;;;;;;;10.38;8.20;;;;;;;;;;1937267;74;21022;-57
2022/03/18 06:20:08;;;;;;;14.23;10.65;;;;;;;;;;1937434;74;21010;-57
2022/03/18 06:22:38;;;;;;;11.97;7.33;;;;;;;;;;1937424;74;21034;-57
2022/03/18 06:25:07;;;;;;;10.70;8.70;;;;;;;;;;1937445;74;21022;-57
2022/03/18 06:27:36;;;;;;;18.25;10.03;;;;;;;;;;1937396;74;21025;-58
2022/03/18 06:30:05;;;;;;;14.93;8.65;;;;;;;;;;1937466;74;21065;-58
2022/03/18 06:32:33;;;;;;;15.98;9.25;;;;;;;;;;1937484;74;21009;-58
2022/03/18 06:35:02;;;;;;;17.05;9.85;;;;;;;;;;1937486;74;21102;-58
2022/03/18 06:37:31;;;;;;;7.72;6.08;;;;;;;;;;1937361;74;21115;-58
2022/03/18 06:40:00;;;;;;;10.70;8.13;;;;;;;;;;1937449;74;21107;-58
2022/03/18 06:42:29;;;;;;;12.43;9.05;;;;;;;;;;1937402;74;21099;-58
2022/03/18 06:44:58;;;;;;;8.85;6.80;;;;;;;;;;1937518;74;21022;-58
2022/03/18 06:47:27;;;;;;;10.75;7.80;;;;;;;;;;1937482;74;21096;-58
2022/03/18 06:49:56;;;;;;;13.50;10.82;;;;;;;;;;1937476;74;21107;-58
2022/03/18 06:52:25;;;;;;;16.52;10.68;;;;;;;;;;1937340;74;21069;-58
2022/03/18 06:54:55;;;;;;;19.45;12.25;;;;;;;;;;1937342;74;21138;-58
2022/03/18 06:57:24;;;;;;;11.65;7.15;;;;;;;;;;1937459;74;21054;-58
2022/03/18 06:59:53;;;;;;;10.28;7.92;;;;;;;;;;1937392;73;21045;-58
2022/03/18 07:02:22;;;;;;;8.30;5.72;;;;;;;;;;1937419;74;21030;-58
2022/03/18 07:04:50;;;;;;;11.85;8.70;;;;;;;;;;1937345;73;21139;-58
2022/03/18 07:07:19;;;;;;;20.35;9.93;;;;;;;;;;1937231;74;21054;-58
2022/03/18 07:09:48;;;;;;;13.90;10.82;;;;;;;;;;1937402;74;21022;-58
2022/03/18 07:12:17;;;;;;;8.68;5.65;;;;;;;;;;1937404;74;21021;-58
2022/03/18 07:14:46;;;;;;;7.67;5.53;;;;;;;;;;1937517;74;21033;-58
2022/03/18 07:20:02;;;;;;;10.32;8.28;;;;;;;;;;1937365;74;21107;-58
2022/03/18 07:22:31;;;;;;;10.13;7.85;;;;;;;;;;1937303;74;21017;-58
2022/03/18 07:25:00;;;;;;;7.42;5.72;;;;;;;;;;1937366;74;21014;-58
2022/03/18 07:27:28;;;;;;;9.00;6.92;;;;;;;;;;1937313;74;21076;-58
2022/03/18 07:29:57;;;;;;;10.35;8.33;;;;;;;;;;1937565;74;21099;-58
2022/03/18 07:32:26;;;;;;;10.82;7.17;;;;;;;;;;1937302;74;21033;-58
2022/03/18 07:34:55;;;;;;;15.30;10.45;;;;;;;;;;1937285;74;21069;-58
2022/03/18 07:37:26;;;;;;;9.08;7.08;;;;;;;;;;1937414;74;21042;-58
2022/03/18 07:39:54;;;;;;;7.85;6.55;;;;;;;;;;1937301;74;21597;-58
2022/03/18 07:42:23;;;;;;;8.20;5.95;;;;;;;;;;1937326;74;21038;-58
2022/03/18 07:44:52;;;;;;;13.80;8.88;;;;;;;;;;1937322;74;21006;-58
2022/03/18 07:47:21;;;;;;;12.50;10.32;;;;;;;;;;1937347;74;21083;-58
2022/03/18 07:49:50;;;;;;;8.53;6.35;;;;;;;;;;1937331;74;21042;-58
2022/03/18 07:52:19;;;;;;;15.53;9.73;;;;;;;;;;1937334;74;21038;-58
2022/03/18 07:54:47;;;;;;;7.97;5.03;;;;;;;;;;1937267;74;21046;-58
2022/03/18 07:57:16;;;;;;;17.00;10.23;;;;;;;;;;1937290;74;21018;-58
2022/03/18 07:59:45;;;;;;;11.15;8.90;;;;;;;;;;1937335;74;21073;-58
2022/03/18 08:02:14;;;;;;;12.85;8.83;;;;;;;;;;1937057;74;21115;-57
2022/03/18 08:04:43;;;;;;;10.93;7.97;;;;;;;;;;1936799;74;21021;-57
2022/03/18 08:07:12;;;;;;;9.10;7.08;;;;;;;;;;1908283;74;21023;-57
2022/03/18 08:09:40;;;;;;;10.03;7.70;;;;;;;;;;1896319;75;21118;-56
2022/03/18 08:12:10;;;;;;;7.30;5.87;;;;;;;;;;1914922;74;21030;-56
2022/03/18 08:14:39;;;;;;;8.68;6.85;;;;;;;;;;1895894;75;21085;-56
2022/03/18 08:17:08;;;;;;;9.30;7.15;;;;;;;;;;1895934;75;21003;-56
2022/03/18 08:19:37;;;;;;;10.50;7.03;;;;;;;;;;1898942;75;21095;-56
2022/03/18 08:22:07;;;;;;;7.62;6.12;;;;;;;;;;1897076;75;21122;-56
2022/03/18 08:24:35;;;;;;;11.78;7.72;;;;;;;;;;1895702;75;21060;-56
2022/03/18 08:27:06;;;;;;;9.18;7.40;;;;;;;;;;1893587;75;21498;-55
2022/03/18 08:29:36;;;;;;;8.30;6.50;;;;;;;;;;1900140;75;21143;-55
2022/03/18 08:32:07;;;;;;;16.95;10.80;;;;;;;;;;1873044;75;21034;-55
2022/03/18 08:34:39;;;;;;;8.00;5.15;;;;;;;;;;1896897;75;21095;-57
2022/03/18 08:37:09;;;;;;;15.25;9.43;;;;;;;;;;1893395;75;21099;-56
2022/03/18 08:39:41;;;;;;;11.63;8.23;;;;;;;;;;1881291;75;21099;-56
2022/03/18 08:42:10;;;;;;;8.58;5.15;;;;;;;;;;1914758;75;21094;-56
2022/03/18 08:44:39;;;;;;;12.80;8.30;;;;;;;;;;1907854;75;21082;-56
2022/03/18 08:47:08;;;;;;;8.23;6.30;;;;;;;;;;1900227;75;21091;-54
2022/03/18 08:49:37;;;;;;;15.35;10.35;;;;;;;;;;1895364;74;21092;-58
2022/03/18 08:52:06;;;;;;;19.95;10.25;;;;;;;;;;1902866;75;21134;-56
2022/03/18 08:54:34;;;;;;;12.43;7.75;;;;;;;;;;1898367;75;21026;-60
2022/03/18 08:57:03;;;;;;;13.65;8.75;;;;;;;;;;1897786;75;21020;-57
2022/03/18 08:59:32;;;;;;;10.30;5.30;;;;;;;;;;1895390;75;20999;-57
2022/03/18 09:02:00;;;;;;;15.58;10.85;;;;;;;;;;1897071;75;21034;-57
2022/03/18 09:04:29;;;;;;;13.93;10.68;;;;;;;;;;1895034;75;21026;-58
2022/03/18 09:06:59;;;;;;;12.28;8.35;;;;;;;;;;1900476;75;21200;-58
2022/03/18 09:09:27;;;;;;;11.18;7.65;;;;;;;;;;1903611;75;21039;-57
2022/03/18 09:11:56;;;;;;;11.03;8.80;;;;;;;;;;1903707;75;21149;-58
2022/03/18 09:14:25;;;;;;;10.30;7.75;;;;;;;;;;1903708;75;21083;-57
2022/03/18 09:16:54;;;;;;;16.42;8.53;;;;;;;;;;1903401;75;21020;-54
2022/03/18 09:19:23;;;;;;;13.62;10.15;;;;;;;;;;1891025;75;21157;-54
2022/03/18 09:21:52;;;;;;;11.18;8.08;;;;;;;;;;1885825;75;21019;-54
2022/03/18 09:24:21;;;;;;;7.72;6.53;;;;;;;;;;1887532;75;21051;-52
2022/03/18 09:26:50;;;;;;;11.60;7.47;;;;;;;;;;1887216;75;21019;-55
2022/03/18 09:29:24;;;;;;;12.85;9.70;;;;;;;;;;1888978;75;21027;-56
2022/03/18 09:31:49;;;;;;;17.37;11.97;;;;;;;;;;1887248;75;21518;-57
2022/03/18 09:34:18;;;;;;;17.30;7.78;;;;;;;;;;1885536;75;21573;-55
2022/03/18 09:36:47;;;;;;;27.05;13.93;;;;;;;;;;1890158;75;21036;-57
2022/03/18 09:39:16;;;;;;;14.15;9.53;;;;;;;;;;1891594;75;21007;-56
2022/03/18 09:41:45;;;;;;;8.90;6.92;;;;;;;;;;1887314;75;21072;-53
2022/03/18 09:44:14;;;;;;;11.28;7.05;;;;;;;;;;1899214;75;21128;-57
2022/03/18 09:46:43;;;;;;;15.80;9.55;;;;;;;;;;1884928;75;21151;-56
2022/03/18 09:49:13;;;;;;;21.73;13.45;;;;;;;;;;1889643;75;21086;-56
2022/03/18 09:51:45;;;;;;;11.28;5.75;;;;;;;;;;1902550;75;21376;-54
2022/03/18 09:54:16;;;;;;;9.18;6.90;;;;;;;;;;1900977;74;21097;-54
2022/03/18 09:56:45;;;;;;;9.93;7.92;;;;;;;;;;1901766;75;21082;-56
2022/03/18 09:59:15;;;;;;;10.95;7.10;;;;;;;;;;1901629;75;21153;-55
2022/03/18 10:01:44;;;;;;;9.63;7.25;;;;;;;;;;1903257;75;21015;-53
2022/03/18 10:04:14;;;;;;;11.95;7.90;;;;;;;;;;1903873;75;21031;-56
2022/03/18 10:06:44;;;;;;;6.08;5.15;;;;;;;;;;1902783;74;21164;-57
2022/03/18 10:09:13;;;;;;;15.05;10.45;;;;;;;;;;1879479;76;21093;-56
2022/03/18 10:11:47;;;;;;;10.88;6.45;;;;;;;;;;1879403;76;21096;-57
2022/03/18 10:14:16;;;;;;;15.18;9.88;;;;;;;;;;1878160;76;21365;-56
2022/03/18 10:16:45;;;;;;;12.45;10.38;;;;;;;;;;1879481;76;21073;-58
2022/03/18 10:19:25;;;;;;;10.25;8.00;;;;;;;;;;1879327;76;21093;-56
2022/03/18 10:21:58;;;;;;;7.45;4.62;;;;;;;;;;1879571;76;20998;-58
2022/03/18 10:24:28;;;;;;;9.58;6.92;;;;;;;;;;1879368;76;21050;-53
2022/03/18 10:27:14;;;;;;;12.95;9.80;;;;;;;;;;1879397;76;21037;-56
2022/03/18 10:29:41;;;;;;;18.77;11.03;;;;;;;;;;1831802;76;21662;-54
2022/03/18 10:32:10;;;;;;;14.98;7.83;;;;;;;;;;1879531;75;21026;-55
2022/03/18 10:37:27;;;;;;;11.83;8.65;;;;;;;;;;1879464;76;21041;-55
2022/03/18 10:40:02;;;;;;;17.25;11.33;;;;;;;;;;1879535;76;21115;-55
2022/03/18 10:42:31;;;;;;;9.70;3.90;;;;;;;;;;1879582;76;21045;-55
2022/03/18 10:45:01;;;;;;;8.33;7.03;;;;;;;;;;1879512;76;21010;-55
2022/03/18 10:47:30;;;;;;;10.08;7.65;;;;;;;;;;1879618;76;20994;-56
2022/03/18 10:50:13;;;;;;;8.25;5.65;;;;;;;;;;1879696;76;21456;-56
2022/03/18 10:52:43;;;;;;;7.53;6.50;;;;;;;;;;1879558;76;21339;-54
2022/03/18 10:55:19;;;;;;;16.00;10.63;;;;;;;;;;1909712;75;21135;-55
2022/03/18 10:57:49;;;;;;;11.15;7.53;;;;;;;;;;1919101;75;21100;-52
2022/03/18 11:00:18;;;;;;;7.53;5.83;;;;;;;;;;1918812;75;21122;-52
2022/03/18 11:02:48;;;;;;;14.73;9.55;;;;;;;;;;1918913;75;21089;-55
2022/03/18 11:05:18;;;;;;;15.53;7.45;;;;;;;;;;1917769;75;21138;-54
2022/03/18 11:07:47;;;;;;;8.50;5.87;;;;;;;;;;1925443;74;21053;-54
2022/03/18 11:13:04;;;;;;;9.18;6.10;;;;;;;;;;1942465;74;21041;-53
2022/03/18 11:15:33;;;;;;;8.65;6.53;;;;;;;;;;1942460;74;20993;-54
2022/03/18 11:18:03;;;;;;;14.63;10.58;;;;;;;;;;1942665;74;21074;-55
2022/03/18 11:20:33;;;;;;;12.60;9.48;;;;;;;;;;1942496;74;21098;-53
2022/03/18 11:23:02;;;;;;;15.68;11.65;;;;;;;;;;1942246;74;21036;-55
2022/03/18 11:25:30;;;;;;;10.45;7.20;;;;;;;;;;1942630;74;21080;-51
2022/03/18 11:27:59;;;;;;;6.70;4.70;;;;;;;;;;1942546;74;21076;-55
2022/03/18 11:30:39;;;;;;;7.83;6.12;;;;;;;;;;1942458;74;21785;-55
2022/03/18 11:33:13;;;;;;;10.95;6.08;;;;;;;;;;1942596;74;21028;-53
2022/03/18 11:35:52;;;;;;;6.95;5.22;;;;;;;;;;1942470;74;21025;-53
2022/03/18 11:38:26;;;;;;;8.95;6.00;;;;;;;;;;1942541;74;21017;-54
2022/03/18 11:41:02;;;;;;;15.38;9.70;;;;;;;;;;1941695;74;21135;-50
2022/03/18 11:43:39;;;;;;;14.40;7.15;;;;;;;;;;1942418;74;21560;-52
2022/03/18 11:46:16;;;;;;;19.90;9.60;;;;;;;;;;1942432;74;21079;-53
2022/03/18 11:48:52;;;;;;;11.55;7.20;;;;;;;;;;1942493;74;21098;-54
2022/03/18 11:51:34;;;;;;;10.95;8.48;;;;;;;;;;1942272;74;21147;-55
2022/03/18 11:54:05;;;;;;;12.93;8.28;;;;;;;;;;1942681;74;21419;-55
2022/03/18 11:56:47;;;;;;;15.13;9.05;;;;;;;;;;1942547;74;21040;-55
2022/03/18 11:59:29;;;;;;;16.60;10.43;;;;;;;;;;1942415;74;21158;-53
2022/03/18 12:02:02;;;;;;;7.87;5.75;;;;;;;;;;1942605;74;21122;-54
2022/03/18 12:04:42;;;;;;;8.55;6.12;;;;;;;;;;1942511;74;21146;-52
2022/03/18 12:07:27;;;;;;;18.10;13.93;;;;;;;;;;1941564;74;21048;-52
2022/03/18 12:09:58;;;;;;;17.57;10.20;;;;;;;;;;1897867;74;21125;-54
2022/03/18 12:12:28;;;;;;;13.05;9.23;;;;;;;;;;1897350;75;21242;-54
2022/03/18 12:14:58;;;;;;;10.88;7.47;;;;;;;;;;1897516;75;21026;-55
2022/03/18 12:17:26;;;;;;;10.38;8.23;;;;;;;;;;1897516;75;21512;-54
2022/03/18 12:19:57;;;;;;;10.68;7.65;;;;;;;;;;1897172;75;21155;-55
2022/03/18 12:22:25;;;;;;;7.25;6.55;;;;;;;;;;1897680;75;21050;-54
2022/03/18 12:24:55;;;;;;;10.00;7.45;;;;;;;;;;1897418;75;21104;-50
2022/03/18 12:27:31;;;;;;;12.73;8.95;;;;;;;;;;1897288;75;21089;-46
2022/03/18 12:30:00;;;;;;;8.78;6.53;;;;;;;;;;1897413;75;21031;-48
2022/03/18 12:32:29;;;;;;;12.47;9.88;;;;;;;;;;1897612;75;21035;-49
2022/03/18 12:34:58;;;;;;;18.50;9.20;;;;;;;;;;1897241;75;21035;-52
2022/03/18 12:37:31;;;;;;;13.18;8.38;;;;;;;;;;1897516;75;21027;-46
2022/03/18 12:40:05;;;;;;;12.90;7.97;;;;;;;;;;1897535;74;21461;-48
2022/03/18 12:42:53;;;;;;;11.00;8.58;;;;;;;;;;1896496;75;21038;-53
2022/03/18 12:45:29;;;;;;;12.43;8.55;;;;;;;;;;1897979;75;21054;-46
2022/03/18 12:48:00;;;;;;;16.57;10.90;;;;;;;;;;1898237;75;21559;-45
2022/03/18 12:50:30;;;;;;;14.05;10.93;;;;;;;;;;1898176;75;21437;-47
2022/03/18 12:52:59;;;;;;;13.50;9.80;;;;;;;;;;1898088;75;21038;-46
2022/03/18 12:55:28;;;;;;;8.48;5.22;;;;;;;;;;1898062;75;21100;-47
2022/03/18 12:57:59;;;;;;;10.03;7.72;;;;;;;;;;1896627;75;21063;-46
2022/03/18 13:00:28;;;;;;;14.38;10.25;;;;;;;;;;1898056;75;21141;-46
2022/03/18 13:02:57;;;;;;;24.43;13.88;;;;;;;;;;1898055;75;21007;-46
2022/03/18 13:05:29;;;;;;;12.90;8.55;;;;;;;;;;1898124;75;21061;-46
2022/03/18 13:07:58;;;;;;;6.78;6.00;;;;;;;;;;1898115;75;21096;-46
2022/03/18 13:10:27;;;;;;;12.55;8.58;;;;;;;;;;1942475;74;21106;-45
2022/03/18 13:12:57;;;;;;;10.90;8.73;;;;;;;;;;1943213;74;21068;-47
2022/03/18 13:15:27;;;;;;;10.90;7.92;;;;;;;;;;1941709;74;21044;-46
2022/03/18 13:17:56;;;;;;;10.95;7.12;;;;;;;;;;1943152;74;21076;-45
2022/03/18 13:20:26;;;;;;;11.83;8.40;;;;;;;;;;1940444;74;21305;-47
2022/03/18 13:22:55;;;;;;;17.12;12.43;;;;;;;;;;1943163;74;21168;-46
2022/03/18 13:25:24;;;;;;;20.60;11.43;;;;;;;;;;1943187;74;21021;-46
2022/03/18 13:27:53;;;;;;;12.80;8.18;;;;;;;;;;1942996;74;21036;-50
2022/03/18 13:33:10;;;;;;;12.58;7.67;;;;;;;;;;1943111;74;21041;-47
2022/03/18 13:35:46;;;;;;;13.78;9.33;;;;;;;;;;1943149;74;21041;-45
2022/03/18 13:38:17;;;;;;;13.32;9.63;;;;;;;;;;1943217;74;21094;-46
2022/03/18 13:40:59;;;;;;;11.60;9.55;;;;;;;;;;1943047;74;21083;-46
2022/03/18 13:43:29;;;;;;;13.88;9.65;;;;;;;;;;1943080;74;21415;-47
2022/03/18 13:46:11;;;;;;;11.18;8.28;;;;;;;;;;1943142;74;21098;-46
2022/03/18 13:48:40;;;;;;;11.55;9.65;;;;;;;;;;1943119;74;21065;-49
2022/03/18 13:51:10;;;;;;;13.10;9.38;;;;;;;;;;1943317;74;21024;-46
2022/03/18 13:53:39;;;;;;;9.58;7.35;;;;;;;;;;1943219;74;21033;-46
2022/03/18 13:56:15;;;;;;;30.65;12.88;;;;;;;;;;1943078;74;21001;-46
2022/03/18 13:58:45;;;;;;;16.97;11.88;;;;;;;;;;1943207;74;21509;-46
2022/03/18 14:01:17;;;;;;;13.68;10.00;;;;;;;;;;1943197;74;21052;-48
2022/03/18 14:03:49;;;;;;;12.82;8.95;;;;;;;;;;1943152;74;21084;-45
2022/03/18 14:06:17;;;;;;;9.05;8.00;;;;;;;;;;1943339;74;21115;-46
2022/03/18 14:08:46;;;;;;;9.45;6.30;;;;;;;;;;1939255;74;21029;-47
2022/03/18 14:14:31;;;;;;;11.65;7.83;;;;;;;;;;1898140;75;21042;-46
2022/03/18 14:17:10;;;;;;;11.68;8.95;;;;;;;;;;1898225;75;21522;-47
2022/03/18 14:19:44;;;;;;;13.48;10.05;;;;;;;;;;1898330;75;21128;-46
2022/03/18 14:22:29;;;;;;;16.87;11.48;;;;;;;;;;1898238;75;21163;-46
2022/03/18 14:24:58;;;;;;;10.93;9.00;;;;;;;;;;1898357;75;21023;-46
2022/03/18 14:27:27;;;;;;;11.50;9.10;;;;;;;;;;1898149;75;21019;-47
2022/03/18 14:29:56;;;;;;;8.50;7.53;;;;;;;;;;1898104;75;21077;-46
2022/03/18 14:32:25;;;;;;;12.40;8.25;;;;;;;;;;1898140;75;21011;-47
2022/03/18 14:34:55;;;;;;;12.85;8.28;;;;;;;;;;1898096;75;21034;-48
2022/03/18 14:37:25;;;;;;;11.22;8.63;;;;;;;;;;1898166;75;21546;-47
2022/03/18 14:39:54;;;;;;;13.90;9.78;;;;;;;;;;1898071;75;21535;-47
2022/03/18 14:42:22;;;;;;;11.43;8.43;;;;;;;;;;1898294;75;21088;-47
2022/03/18 14:44:51;;;;;;;14.33;9.70;;;;;;;;;;1898209;75;21010;-47
2022/03/18 14:47:20;;;;;;;8.10;6.47;;;;;;;;;;1898237;75;21030;-47
2022/03/18 14:49:49;;;;;;;17.40;10.23;;;;;;;;;;1898168;75;21038;-46
2022/03/18 14:52:18;;;;;;;10.55;7.15;;;;;;;;;;1898125;75;21116;-47
2022/03/18 14:57:34;;;;;;;16.10;9.78;;;;;;;;;;1898166;75;21050;-47
2022/03/18 15:00:04;;;;;;;9.40;7.28;;;;;;;;;;1898132;75;21038;-46
2022/03/18 15:02:41;;;;;;;12.20;7.83;;;;;;;;;;1898160;75;21034;-47
2022/03/18 15:05:07;;;;;;;9.28;7.10;;;;;;;;;;1897580;75;21046;-46
2022/03/18 15:07:36;;;;;;;9.40;7.12;;;;;;;;;;1898297;75;21120;-46
2022/03/18 15:10:05;;;;;;;12.60;8.13;;;;;;;;;;1902558;74;21062;-47
2022/03/18 15:12:34;;;;;;;12.30;9.10;;;;;;;;;;1908324;75;21026;-48